Gretna, Nebraska
Current Conditions -  °F | °C
As of 2:15 AM on Thursday 29 Jan 2015 (Local Time) from KMLE Reporting Station
Overcast Overcast  
Wind Chill: 28°   Ceiling: 1700
Heat Index: 38°   Visibility: 10mi
Dew Point: 31°   Wind: 20mph
Humidity: 75%   Direction: 320°NW
Pressure: 30.09"   Gusts: 37mph
Location:  41.14°N, 96.24°W
Report Text: KMLE 290815Z AUTO 32017G32KT 10SM OVC017 03/M01 A3009 RMK AO2 T00321008
Loading
Personal Weather Stations






























Interactive Weather Map New forecast layout! Learn more

10-Day Weather Forecast

Advertisements
Track Severe Weather on mobile